»·PEaware :: UPS3498 KLAS-KSAN

UPS3498 :: KLAS-KSAN

FLIGHT INFORMATION

Flight Status: Arrived
Operator:
United Parcel Service
More flights by this operator :: More flights under this callsign
Pilot: Reece H. (20488)
Aircraft: BOEING 757-200
(B752)
More flights by this aircraft type
Origin: KLAS McCarran Intl
United States
Destination: KSAN San Diego Intl-Lindbergh
United States
More flights between these airports :: More routes between these airports
Route: +BOACH8 LVELL LUCKI1
File this flight plan on PilotEdge
Remarks: PBN / A1B3B4B5C4D4O4 DOF / 180930 REG / N538SB OPR / UPS PER / D RMK / TCAS SIMBRIEF
Altitude:
(Current/Filed)
36,000ft
Speed:
(Current/Filed)
460kts
Departed: 29-Sep-18 06:01 PM
Arrived: 29-Sep-18 06:57 PM
Distance/Time
Traveled:
225nm/0:56
Distance/Time
To Go:
Arrived

Flight Plot

Page will automatically refresh every two minutes.

Flight plan parsing failed; only flown route is shown


Map Options




Map Legend


Flown Route
Filed Route
Departure Airport
Arrival Airport
Navaid (VOR, NDB)
Fix

Horizontal Profiles

Position Reports

Time Latitude Longitude Heading Altitude Ground
Speed
29-Sep-18 17:22 36.091610 -115.164289 243 2193ft 0kts
29-Sep-18 17:23 36.091610 -115.164289 243 2193ft 0kts
29-Sep-18 17:24 36.091610 -115.164289 243 2193ft 0kts
29-Sep-18 17:25 36.091610 -115.164289 243 2193ft 0kts
29-Sep-18 17:26 36.091610 -115.164289 243 2193ft 0kts
29-Sep-18 17:27 36.091610 -115.164289 243 2193ft 0kts
29-Sep-18 17:28 36.091610 -115.164289 243 2192ft 0kts
29-Sep-18 17:29 36.091610 -115.164289 243 2193ft 0kts
29-Sep-18 17:30 36.091610 -115.164289 243 2193ft 0kts
29-Sep-18 17:31 36.091610 -115.164289 243 2193ft 0kts
29-Sep-18 17:32 36.091610 -115.164289 243 2193ft 0kts
29-Sep-18 17:33 36.091610 -115.164289 243 2193ft 0kts
29-Sep-18 17:34 36.091610 -115.164289 243 2193ft 0kts
29-Sep-18 17:35 36.091610 -115.164289 243 2193ft 0kts
29-Sep-18 17:36 36.091610 -115.164289 243 2193ft 0kts
29-Sep-18 17:37 36.091610 -115.164289 243 2193ft 0kts
29-Sep-18 17:38 36.091610 -115.164289 243 2193ft 0kts
29-Sep-18 17:39 36.091610 -115.164289 243 2193ft 0kts
29-Sep-18 17:40 36.091610 -115.164289 243 2193ft 0kts
29-Sep-18 17:41 36.091610 -115.164289 243 2193ft 0kts
29-Sep-18 17:42 36.091610 -115.164289 243 2193ft 0kts
29-Sep-18 17:43 36.091610 -115.164289 243 2193ft 0kts
29-Sep-18 17:44 36.091610 -115.164289 243 2193ft 0kts
29-Sep-18 17:45 36.091610 -115.164289 243 2193ft 0kts
29-Sep-18 17:46 36.091610 -115.164289 243 2193ft 0kts
29-Sep-18 17:47 36.091610 -115.164289 243 2193ft 0kts
29-Sep-18 17:48 36.091610 -115.164289 243 2193ft 0kts
29-Sep-18 17:49 36.091610 -115.164289 243 2193ft 0kts
29-Sep-18 17:50 36.091610 -115.164289 243 2193ft 0kts
29-Sep-18 17:51 36.091610 -115.164289 243 2193ft 0kts
29-Sep-18 17:52 36.091610 -115.164289 243 2193ft 0kts
29-Sep-18 17:53 36.092028 -115.164154 144 2193ft 0kts
29-Sep-18 17:54 36.092039 -115.164164 144 2193ft 0kts
29-Sep-18 17:55 36.092039 -115.164164 144 2193ft 0kts
29-Sep-18 17:56 36.092039 -115.164164 144 2193ft 0kts
29-Sep-18 17:57 36.091934 -115.164091 150 2193ft 0kts
29-Sep-18 17:58 36.091902 -115.164068 150 2193ft 2kts
29-Sep-18 17:59 36.092836 -115.162739 25 2193ft 11kts
29-Sep-18 18:00 36.094637 -115.160893 36 2193ft 10kts
29-Sep-18 18:01 36.097812 -115.158991 25 2193ft 15kts
29-Sep-18 18:02 36.099801 -115.157318 104 2193ft 6kts
29-Sep-18 18:03 36.094973 -115.159154 204 2193ft 96kts
29-Sep-18 18:04 36.059718 -115.180089 205 4531ft 191kts
29-Sep-18 18:05 36.009292 -115.222105 238 8143ft 257kts
29-Sep-18 18:06 35.969012 -115.298064 216 11430ft 319kts
29-Sep-18 18:07 35.883994 -115.315842 184 13019ft 338kts
29-Sep-18 18:08 35.795526 -115.308409 177 13028ft 340kts
29-Sep-18 18:09 35.701763 -115.297495 178 14947ft 348kts
29-Sep-18 18:10 35.607776 -115.311036 193 19596ft 343kts
29-Sep-18 18:11 35.523263 -115.329932 193 23037ft 332kts
29-Sep-18 18:12 35.433047 -115.349985 193 24263ft 382kts
29-Sep-18 18:13 35.338561 -115.370434 193 26852ft 396kts
29-Sep-18 18:14 35.243183 -115.391265 194 29546ft 397kts
29-Sep-18 18:15 35.148963 -115.411903 194 32379ft 386kts
29-Sep-18 18:16 35.056729 -115.432095 195 34856ft 378kts
29-Sep-18 18:17 34.963594 -115.452798 195 35976ft 378kts
29-Sep-18 18:18 34.873580 -115.472526 194 35997ft 383kts
29-Sep-18 18:19 34.779141 -115.493057 194 36006ft 383kts
29-Sep-18 18:20 34.684891 -115.513286 194 36027ft 383kts
29-Sep-18 18:21 34.589238 -115.533777 194 36084ft 382kts
29-Sep-18 18:22 34.493802 -115.554348 194 36105ft 383kts
29-Sep-18 18:23 34.397265 -115.575136 194 36104ft 383kts
29-Sep-18 18:24 34.308726 -115.594163 194 36103ft 383kts
29-Sep-18 18:25 34.213459 -115.615893 201 36104ft 380kts
29-Sep-18 18:26 34.131959 -115.653653 204 36104ft 378kts
29-Sep-18 18:27 34.052366 -115.690897 203 34898ft 382kts
29-Sep-18 18:28 33.971931 -115.728239 204 33228ft 387kts
29-Sep-18 18:29 33.886504 -115.769040 204 31408ft 392kts
29-Sep-18 18:30 33.802531 -115.810189 204 29690ft 397kts
29-Sep-18 18:31 33.722273 -115.848823 203 28059ft 388kts
29-Sep-18 18:32 33.635725 -115.889036 203 26300ft 379kts
29-Sep-18 18:33 33.554002 -115.927124 204 24642ft 370kts
29-Sep-18 18:34 33.491704 -115.990333 232 23819ft 366kts
29-Sep-18 18:35 33.442697 -116.072131 233 21962ft 360kts
29-Sep-18 18:36 33.399619 -116.145810 234 20466ft 350kts
29-Sep-18 18:37 33.364502 -116.207504 233 19348ft 345kts
29-Sep-18 18:38 33.300782 -116.272595 207 17855ft 338kts
29-Sep-18 18:39 33.236035 -116.310476 207 16533ft 332kts
29-Sep-18 18:40 33.173507 -116.347022 207 15308ft 326kts
29-Sep-18 18:41 33.118177 -116.379436 206 14265ft 320kts
29-Sep-18 18:42 33.062689 -116.411769 206 13226ft 319kts
29-Sep-18 18:43 32.993523 -116.458233 219 12003ft 309kts
29-Sep-18 18:44 32.946468 -116.505371 219 12005ft 309kts
29-Sep-18 18:45 32.893328 -116.558854 219 12004ft 309kts
29-Sep-18 18:46 32.836869 -116.615681 219 11997ft 305kts
29-Sep-18 18:47 32.785906 -116.666951 220 10564ft 269kts
29-Sep-18 18:48 32.751146 -116.729050 240 8633ft 264kts
29-Sep-18 18:49 32.719329 -116.795829 241 6388ft 261kts
29-Sep-18 18:50 32.696087 -116.858810 250 5833ft 244kts
29-Sep-18 18:51 32.691159 -116.919236 272 4865ft 215kts
29-Sep-18 18:52 32.692789 -116.969070 273 3642ft 198kts
29-Sep-18 18:53 32.694540 -117.017740 273 3052ft 171kts
29-Sep-18 18:54 32.700482 -117.054329 287 2704ft 152kts
29-Sep-18 18:55 32.709796 -117.091569 287 1693ft 123kts
29-Sep-18 18:56 32.717682 -117.124303 286 1128ft 104kts
29-Sep-18 18:57 32.725403 -117.156048 287 587ft 103kts
29-Sep-18 18:58 32.732948 -117.187173 286 30ft 84kts
29-Sep-18 18:59 32.734194 -117.195041 242 29ft 1kts
29-Sep-18 19:00 32.733756 -117.194714 108 29ft 8kts
29-Sep-18 19:01 32.732618 -117.192910 193 29ft 6kts
29-Sep-18 19:02 32.732484 -117.192957 196 29ft 0kts

Navigation Log

Ident Type
Flight plan parsing failed, navigation log unavailable